sensor_id;sensor_type;location;lat;lon;timestamp;P1;durP1;ratioP1;P2;durP2;ratioP2
59167;SDS011;44948;55.046;73.266;2022-08-05T00:01:14;10.55;;;3.22;;
59167;SDS011;44948;55.046;73.266;2022-08-05T00:03:05;10.52;;;3.28;;
59167;SDS011;44948;55.046;73.266;2022-08-05T00:05:19;8.15;;;2.72;;
59167;SDS011;44948;55.046;73.266;2022-08-05T00:07:32;4.78;;;2.92;;
59167;SDS011;44948;55.046;73.266;2022-08-05T00:09:20;5.85;;;2.92;;
59167;SDS011;44948;55.046;73.266;2022-08-05T00:11:35;8.05;;;2.83;;
59167;SDS011;44948;55.046;73.266;2022-08-05T00:13:33;6.82;;;3.25;;
59167;SDS011;44948;55.046;73.266;2022-08-05T00:15:23;4.93;;;2.78;;
59167;SDS011;44948;55.046;73.266;2022-08-05T00:17:40;6.15;;;2.55;;
59167;SDS011;44948;55.046;73.266;2022-08-05T00:19:37;6.95;;;2.70;;
59167;SDS011;44948;55.046;73.266;2022-08-05T00:21:41;6.72;;;2.70;;
59167;SDS011;44948;55.046;73.266;2022-08-05T00:23:37;7.88;;;2.85;;
59167;SDS011;44948;55.046;73.266;2022-08-05T00:25:31;4.90;;;2.70;;
59167;SDS011;44948;55.046;73.266;2022-08-05T00:27:45;9.00;;;3.50;;
59167;SDS011;44948;55.046;73.266;2022-08-05T00:30:03;5.15;;;2.72;;
59167;SDS011;44948;55.046;73.266;2022-08-05T00:32:02;5.45;;;3.20;;
59167;SDS011;44948;55.046;73.266;2022-08-05T00:33:56;10.85;;;3.10;;
59167;SDS011;44948;55.046;73.266;2022-08-05T00:35:52;7.45;;;2.90;;
59167;SDS011;44948;55.046;73.266;2022-08-05T00:37:35;8.38;;;3.42;;
59167;SDS011;44948;55.046;73.266;2022-08-05T00:39:31;13.95;;;3.03;;
59167;SDS011;44948;55.046;73.266;2022-08-05T00:41:31;11.25;;;4.03;;
59167;SDS011;44948;55.046;73.266;2022-08-05T00:43:31;14.90;;;4.10;;
59167;SDS011;44948;55.046;73.266;2022-08-05T00:45:49;13.25;;;3.63;;
59167;SDS011;44948;55.046;73.266;2022-08-05T00:48:03;16.70;;;4.17;;
59167;SDS011;44948;55.046;73.266;2022-08-05T00:49:51;16.45;;;5.35;;
59167;SDS011;44948;55.046;73.266;2022-08-05T00:51:49;12.40;;;3.95;;
59167;SDS011;44948;55.046;73.266;2022-08-05T00:56:49;9.63;;;3.53;;
59167;SDS011;44948;55.046;73.266;2022-08-05T00:58:42;6.90;;;3.13;;
59167;SDS011;44948;55.046;73.266;2022-08-05T01:00:34;11.67;;;3.50;;
59167;SDS011;44948;55.046;73.266;2022-08-05T01:02:28;9.32;;;3.20;;
59167;SDS011;44948;55.046;73.266;2022-08-05T01:04:34;10.63;;;3.55;;
59167;SDS011;44948;55.046;73.266;2022-08-05T01:06:42;11.98;;;3.25;;
59167;SDS011;44948;55.046;73.266;2022-08-05T01:08:32;7.82;;;3.20;;
59167;SDS011;44948;55.046;73.266;2022-08-05T01:10:36;10.25;;;3.72;;
59167;SDS011;44948;55.046;73.266;2022-08-05T01:12:49;12.82;;;4.15;;
59167;SDS011;44948;55.046;73.266;2022-08-05T01:18:40;21.30;;;5.07;;
59167;SDS011;44948;55.046;73.266;2022-08-05T01:23:08;18.80;;;5.65;;
59167;SDS011;44948;55.046;73.266;2022-08-05T01:25:25;17.92;;;5.38;;
59167;SDS011;44948;55.046;73.266;2022-08-05T01:30:33;20.48;;;3.97;;
59167;SDS011;44948;55.046;73.266;2022-08-05T01:32:32;19.13;;;4.22;;
59167;SDS011;44948;55.046;73.266;2022-08-05T01:34:52;21.60;;;4.70;;
59167;SDS011;44948;55.046;73.266;2022-08-05T01:36:57;37.00;;;5.15;;
59167;SDS011;44948;55.046;73.266;2022-08-05T01:39:27;31.13;;;4.75;;
59167;SDS011;44948;55.046;73.266;2022-08-05T01:41:29;23.25;;;3.53;;
59167;SDS011;44948;55.046;73.266;2022-08-05T01:43:37;29.35;;;4.00;;
59167;SDS011;44948;55.046;73.266;2022-08-05T01:47:46;25.85;;;4.05;;
59167;SDS011;44948;55.046;73.266;2022-08-05T01:49:47;25.83;;;4.28;;
59167;SDS011;44948;55.046;73.266;2022-08-05T01:51:41;33.45;;;5.25;;
59167;SDS011;44948;55.046;73.266;2022-08-05T01:53:45;40.75;;;6.60;;
59167;SDS011;44948;55.046;73.266;2022-08-05T01:55:48;35.78;;;5.90;;
59167;SDS011;44948;55.046;73.266;2022-08-05T01:57:39;43.88;;;6.72;;
59167;SDS011;44948;55.046;73.266;2022-08-05T01:59:42;34.15;;;5.00;;
59167;SDS011;44948;55.046;73.266;2022-08-05T02:02:17;28.83;;;4.40;;
59167;SDS011;44948;55.046;73.266;2022-08-05T02:04:21;17.80;;;2.78;;
59167;SDS011;44948;55.046;73.266;2022-08-05T02:06:49;22.48;;;3.20;;
59167;SDS011;44948;55.046;73.266;2022-08-05T02:08:50;15.18;;;2.67;;
59167;SDS011;44948;55.046;73.266;2022-08-05T02:11:07;11.27;;;2.40;;
59167;SDS011;44948;55.046;73.266;2022-08-05T02:12:55;16.33;;;2.67;;
59167;SDS011;44948;55.046;73.266;2022-08-05T02:15:12;15.25;;;2.63;;
59167;SDS011;44948;55.046;73.266;2022-08-05T02:17:25;7.97;;;1.77;;
59167;SDS011;44948;55.046;73.266;2022-08-05T02:19:37;7.80;;;2.40;;
59167;SDS011;44948;55.046;73.266;2022-08-05T02:21:41;10.38;;;1.90;;
59167;SDS011;44948;55.046;73.266;2022-08-05T02:23:37;17.23;;;2.42;;
59167;SDS011;44948;55.046;73.266;2022-08-05T02:25:31;12.20;;;1.98;;
59167;SDS011;44948;55.046;73.266;2022-08-05T02:27:26;8.73;;;2.30;;
59167;SDS011;44948;55.046;73.266;2022-08-05T02:29:24;11.40;;;2.78;;
59167;SDS011;44948;55.046;73.266;2022-08-05T02:31:14;11.38;;;2.92;;
59167;SDS011;44948;55.046;73.266;2022-08-05T02:33:59;12.38;;;3.05;;
59167;SDS011;44948;55.046;73.266;2022-08-05T02:35:56;8.35;;;2.13;;
59167;SDS011;44948;55.046;73.266;2022-08-05T02:37:43;7.90;;;2.03;;
59167;SDS011;44948;55.046;73.266;2022-08-05T02:39:36;10.80;;;2.28;;
59167;SDS011;44948;55.046;73.266;2022-08-05T02:41:28;4.35;;;1.92;;
59167;SDS011;44948;55.046;73.266;2022-08-05T02:43:15;10.25;;;1.90;;
59167;SDS011;44948;55.046;73.266;2022-08-05T02:47:45;7.18;;;1.80;;
59167;SDS011;44948;55.046;73.266;2022-08-05T02:49:41;5.32;;;2.03;;
59167;SDS011;44948;55.046;73.266;2022-08-05T02:51:33;15.90;;;3.00;;
59167;SDS011;44948;55.046;73.266;2022-08-05T02:53:24;15.23;;;2.60;;
59167;SDS011;44948;55.046;73.266;2022-08-05T02:55:16;13.13;;;3.03;;
59167;SDS011;44948;55.046;73.266;2022-08-05T02:57:14;11.43;;;2.65;;
59167;SDS011;44948;55.046;73.266;2022-08-05T02:59:28;12.55;;;2.60;;
59167;SDS011;44948;55.046;73.266;2022-08-05T03:01:23;16.75;;;2.70;;
59167;SDS011;44948;55.046;73.266;2022-08-05T03:03:20;11.98;;;2.40;;
59167;SDS011;44948;55.046;73.266;2022-08-05T03:05:24;16.55;;;3.33;;
59167;SDS011;44948;55.046;73.266;2022-08-05T03:07:25;21.05;;;3.40;;
59167;SDS011;44948;55.046;73.266;2022-08-05T03:09:31;16.65;;;3.83;;
59167;SDS011;44948;55.046;73.266;2022-08-05T03:11:23;16.23;;;3.53;;
59167;SDS011;44948;55.046;73.266;2022-08-05T03:13:20;13.45;;;5.25;;
59167;SDS011;44948;55.046;73.266;2022-08-05T03:15:34;19.25;;;4.78;;
59167;SDS011;44948;55.046;73.266;2022-08-05T03:17:27;24.00;;;7.13;;
59167;SDS011;44948;55.046;73.266;2022-08-05T03:19:24;19.33;;;7.07;;
59167;SDS011;44948;55.046;73.266;2022-08-05T03:21:15;21.15;;;6.82;;
59167;SDS011;44948;55.046;73.266;2022-08-05T03:23:12;18.92;;;5.18;;
59167;SDS011;44948;55.046;73.266;2022-08-05T03:25:02;17.15;;;6.18;;
59167;SDS011;44948;55.046;73.266;2022-08-05T03:26:59;21.25;;;7.20;;
59167;SDS011;44948;55.046;73.266;2022-08-05T03:28:52;19.05;;;5.63;;
59167;SDS011;44948;55.046;73.266;2022-08-05T03:31:00;15.15;;;4.72;;
59167;SDS011;44948;55.046;73.266;2022-08-05T03:32:56;15.25;;;4.80;;
59167;SDS011;44948;55.046;73.266;2022-08-05T03:35:12;12.88;;;5.22;;
59167;SDS011;44948;55.046;73.266;2022-08-05T03:37:13;12.52;;;2.90;;
59167;SDS011;44948;55.046;73.266;2022-08-05T03:39:37;5.20;;;1.85;;
59167;SDS011;44948;55.046;73.266;2022-08-05T03:41:37;6.15;;;2.15;;
59167;SDS011;44948;55.046;73.266;2022-08-05T03:43:33;13.65;;;4.60;;
59167;SDS011;44948;55.046;73.266;2022-08-05T03:45:42;11.57;;;4.07;;
59167;SDS011;44948;55.046;73.266;2022-08-05T03:47:50;7.07;;;3.33;;
59167;SDS011;44948;55.046;73.266;2022-08-05T03:49:56;7.68;;;2.90;;
59167;SDS011;44948;55.046;73.266;2022-08-05T03:52:04;4.97;;;2.17;;
59167;SDS011;44948;55.046;73.266;2022-08-05T03:54:35;7.68;;;2.50;;
59167;SDS011;44948;55.046;73.266;2022-08-05T03:56:56;6.47;;;2.53;;
59167;SDS011;44948;55.046;73.266;2022-08-05T03:59:04;12.15;;;3.53;;
59167;SDS011;44948;55.046;73.266;2022-08-05T04:01:23;1.58;;;1.23;;
59167;SDS011;44948;55.046;73.266;2022-08-05T04:03:29;3.58;;;1.30;;
59167;SDS011;44948;55.046;73.266;2022-08-05T04:05:32;4.53;;;1.88;;
59167;SDS011;44948;55.046;73.266;2022-08-05T04:07:38;3.90;;;1.92;;
59167;SDS011;44948;55.046;73.266;2022-08-05T04:09:32;2.33;;;0.98;;
59167;SDS011;44948;55.046;73.266;2022-08-05T04:11:38;14.48;;;4.45;;
59167;SDS011;44948;55.046;73.266;2022-08-05T04:16:04;3.28;;;1.40;;
59167;SDS011;44948;55.046;73.266;2022-08-05T04:18:02;4.93;;;2.45;;
59167;SDS011;44948;55.046;73.266;2022-08-05T04:19:51;7.40;;;2.90;;
59167;SDS011;44948;55.046;73.266;2022-08-05T04:22:13;2.42;;;1.33;;
59167;SDS011;44948;55.046;73.266;2022-08-05T04:24:19;8.20;;;2.53;;
59167;SDS011;44948;55.046;73.266;2022-08-05T04:26:18;7.75;;;2.58;;
59167;SDS011;44948;55.046;73.266;2022-08-05T04:28:14;6.80;;;3.00;;
59167;SDS011;44948;55.046;73.266;2022-08-05T04:30:31;5.00;;;2.53;;
59167;SDS011;44948;55.046;73.266;2022-08-05T04:32:28;6.68;;;2.80;;
59167;SDS011;44948;55.046;73.266;2022-08-05T04:34:22;10.07;;;2.50;;
59167;SDS011;44948;55.046;73.266;2022-08-05T04:36:39;9.13;;;2.67;;
59167;SDS011;44948;55.046;73.266;2022-08-05T04:38:51;6.10;;;1.95;;
59167;SDS011;44948;55.046;73.266;2022-08-05T04:40:45;7.85;;;2.05;;
59167;SDS011;44948;55.046;73.266;2022-08-05T04:42:43;5.18;;;2.40;;
59167;SDS011;44948;55.046;73.266;2022-08-05T04:45:17;8.57;;;3.00;;
59167;SDS011;44948;55.046;73.266;2022-08-05T04:47:09;6.65;;;2.63;;
59167;SDS011;44948;55.046;73.266;2022-08-05T04:49:16;7.95;;;3.45;;
59167;SDS011;44948;55.046;73.266;2022-08-05T04:51:08;4.88;;;2.22;;
59167;SDS011;44948;55.046;73.266;2022-08-05T04:53:07;7.55;;;2.90;;
59167;SDS011;44948;55.046;73.266;2022-08-05T04:55:16;7.25;;;2.40;;
59167;SDS011;44948;55.046;73.266;2022-08-05T04:57:09;8.43;;;2.40;;
59167;SDS011;44948;55.046;73.266;2022-08-05T04:58:55;3.58;;;1.70;;
59167;SDS011;44948;55.046;73.266;2022-08-05T05:01:21;3.60;;;1.52;;
59167;SDS011;44948;55.046;73.266;2022-08-05T05:03:18;7.57;;;2.78;;
59167;SDS011;44948;55.046;73.266;2022-08-05T05:05:09;10.25;;;3.72;;
59167;SDS011;44948;55.046;73.266;2022-08-05T05:07:24;3.45;;;1.95;;
59167;SDS011;44948;55.046;73.266;2022-08-05T05:09:21;2.50;;;1.38;;
59167;SDS011;44948;55.046;73.266;2022-08-05T05:11:09;90.28;;;63.25;;
59167;SDS011;44948;55.046;73.266;2022-08-05T05:12:57;13.20;;;9.10;;
59167;SDS011;44948;55.046;73.266;2022-08-05T05:14:57;2.90;;;2.10;;
59167;SDS011;44948;55.046;73.266;2022-08-05T05:16:51;4.55;;;3.10;;
59167;SDS011;44948;55.046;73.266;2022-08-05T05:18:38;5.15;;;2.00;;
59167;SDS011;44948;55.046;73.266;2022-08-05T05:20:38;7.20;;;2.42;;
59167;SDS011;44948;55.046;73.266;2022-08-05T05:22:30;1.85;;;1.20;;
59167;SDS011;44948;55.046;73.266;2022-08-05T05:24:23;3.83;;;1.65;;
59167;SDS011;44948;55.046;73.266;2022-08-05T05:26:18;6.18;;;2.00;;
59167;SDS011;44948;55.046;73.266;2022-08-05T05:29:57;3.13;;;1.60;;
59167;SDS011;44948;55.046;73.266;2022-08-05T05:31:45;2.78;;;1.30;;
59167;SDS011;44948;55.046;73.266;2022-08-05T05:33:36;5.72;;;1.85;;
59167;SDS011;44948;55.046;73.266;2022-08-05T05:35:35;3.80;;;1.52;;
59167;SDS011;44948;55.046;73.266;2022-08-05T05:37:28;1.98;;;1.10;;
59167;SDS011;44948;55.046;73.266;2022-08-05T05:39:29;2.70;;;1.40;;
59167;SDS011;44948;55.046;73.266;2022-08-05T05:41:23;3.80;;;1.73;;
59167;SDS011;44948;55.046;73.266;2022-08-05T05:43:16;4.30;;;1.58;;
59167;SDS011;44948;55.046;73.266;2022-08-05T05:45:08;3.03;;;1.23;;
59167;SDS011;44948;55.046;73.266;2022-08-05T05:47:27;15.05;;;6.78;;
59167;SDS011;44948;55.046;73.266;2022-08-05T05:49:18;6.75;;;4.45;;
59167;SDS011;44948;55.046;73.266;2022-08-05T05:51:10;4.50;;;3.03;;
59167;SDS011;44948;55.046;73.266;2022-08-05T05:53:20;9.23;;;6.90;;
59167;SDS011;44948;55.046;73.266;2022-08-05T05:55:20;2.30;;;1.60;;
59167;SDS011;44948;55.046;73.266;2022-08-05T05:57:15;3.97;;;1.30;;
59167;SDS011;44948;55.046;73.266;2022-08-05T05:59:46;2.22;;;1.00;;
59167;SDS011;44948;55.046;73.266;2022-08-05T06:02:06;2.20;;;1.30;;
59167;SDS011;44948;55.046;73.266;2022-08-05T06:04:05;3.22;;;1.73;;
59167;SDS011;44948;55.046;73.266;2022-08-05T06:10:52;4.15;;;1.50;;
59167;SDS011;44948;55.046;73.266;2022-08-05T06:12:58;2.53;;;1.08;;
59167;SDS011;44948;55.046;73.266;2022-08-05T06:15:00;2.85;;;1.20;;
59167;SDS011;44948;55.046;73.266;2022-08-05T06:17:10;2.20;;;1.30;;
59167;SDS011;44948;55.046;73.266;2022-08-05T06:19:16;1.80;;;1.20;;
59167;SDS011;44948;55.046;73.266;2022-08-05T06:21:18;3.97;;;1.25;;
59167;SDS011;44948;55.046;73.266;2022-08-05T06:25:04;1.60;;;1.30;;
59167;SDS011;44948;55.046;73.266;2022-08-05T06:27:02;2.10;;;0.90;;
59167;SDS011;44948;55.046;73.266;2022-08-05T06:28:54;3.72;;;1.13;;
59167;SDS011;44948;55.046;73.266;2022-08-05T06:30:47;2.10;;;1.05;;
59167;SDS011;44948;55.046;73.266;2022-08-05T06:32:44;1.60;;;1.05;;
59167;SDS011;44948;55.046;73.266;2022-08-05T06:34:42;2.75;;;1.08;;
59167;SDS011;44948;55.046;73.266;2022-08-05T06:36:39;1.65;;;1.10;;
59167;SDS011;44948;55.046;73.266;2022-08-05T06:38:35;4.93;;;1.00;;
59167;SDS011;44948;55.046;73.266;2022-08-05T06:42:33;6.78;;;1.42;;
59167;SDS011;44948;55.046;73.266;2022-08-05T06:44:56;2.42;;;1.20;;
59167;SDS011;44948;55.046;73.266;2022-08-05T06:47:26;3.08;;;1.10;;
59167;SDS011;44948;55.046;73.266;2022-08-05T06:49:17;4.88;;;1.63;;
59167;SDS011;44948;55.046;73.266;2022-08-05T06:51:20;2.65;;;1.13;;
59167;SDS011;44948;55.046;73.266;2022-08-05T06:53:31;1.60;;;1.10;;
59167;SDS011;44948;55.046;73.266;2022-08-05T06:55:28;2.42;;;1.08;;
59167;SDS011;44948;55.046;73.266;2022-08-05T06:57:35;2.22;;;1.10;;
59167;SDS011;44948;55.046;73.266;2022-08-05T06:59:28;3.45;;;1.08;;
59167;SDS011;44948;55.046;73.266;2022-08-05T07:01:19;1.70;;;0.98;;
59167;SDS011;44948;55.046;73.266;2022-08-05T07:03:21;1.52;;;1.10;;
59167;SDS011;44948;55.046;73.266;2022-08-05T07:05:31;3.97;;;1.30;;
59167;SDS011;44948;55.046;73.266;2022-08-05T07:07:31;2.28;;;1.30;;
59167;SDS011;44948;55.046;73.266;2022-08-05T07:09:34;3.92;;;1.40;;
59167;SDS011;44948;55.046;73.266;2022-08-05T07:11:32;3.88;;;1.13;;
59167;SDS011;44948;55.046;73.266;2022-08-05T07:13:53;6.07;;;1.65;;
59167;SDS011;44948;55.046;73.266;2022-08-05T07:16:15;2.22;;;1.38;;
59167;SDS011;44948;55.046;73.266;2022-08-05T07:18:37;1.75;;;1.10;;
59167;SDS011;44948;55.046;73.266;2022-08-05T07:22:48;2.60;;;1.02;;
59167;SDS011;44948;55.046;73.266;2022-08-05T07:24:43;2.47;;;1.13;;
59167;SDS011;44948;55.046;73.266;2022-08-05T07:26:34;2.80;;;1.10;;
59167;SDS011;44948;55.046;73.266;2022-08-05T07:28:32;1.88;;;1.02;;
59167;SDS011;44948;55.046;73.266;2022-08-05T07:30:25;4.25;;;1.40;;
59167;SDS011;44948;55.046;73.266;2022-08-05T07:32:22;7.00;;;3.33;;
59167;SDS011;44948;55.046;73.266;2022-08-05T07:34:13;2.83;;;1.38;;
59167;SDS011;44948;55.046;73.266;2022-08-05T07:36:05;3.88;;;1.90;;
59167;SDS011;44948;55.046;73.266;2022-08-05T07:38:25;1.77;;;1.30;;
59167;SDS011;44948;55.046;73.266;2022-08-05T07:40:16;5.10;;;3.45;;
59167;SDS011;44948;55.046;73.266;2022-08-05T07:42:22;4.72;;;2.05;;
59167;SDS011;44948;55.046;73.266;2022-08-05T07:44:23;8.43;;;3.47;;
59167;SDS011;44948;55.046;73.266;2022-08-05T07:46:47;14.57;;;5.22;;
59167;SDS011;44948;55.046;73.266;2022-08-05T07:49:07;11.75;;;4.75;;
59167;SDS011;44948;55.046;73.266;2022-08-05T07:51:27;13.70;;;4.90;;
59167;SDS011;44948;55.046;73.266;2022-08-05T07:53:24;5.53;;;1.50;;
59167;SDS011;44948;55.046;73.266;2022-08-05T07:55:13;1.83;;;1.30;;
59167;SDS011;44948;55.046;73.266;2022-08-05T07:57:23;5.50;;;2.55;;
59167;SDS011;44948;55.046;73.266;2022-08-05T07:59:44;2.00;;;1.10;;
59167;SDS011;44948;55.046;73.266;2022-08-05T08:02:01;1.30;;;1.10;;
59167;SDS011;44948;55.046;73.266;2022-08-05T08:03:57;1.25;;;1.00;;
59167;SDS011;44948;55.046;73.266;2022-08-05T08:05:48;1.45;;;1.00;;
59167;SDS011;44948;55.046;73.266;2022-08-05T08:07:41;1.80;;;1.10;;
59167;SDS011;44948;55.046;73.266;2022-08-05T08:09:34;1.33;;;1.00;;
59167;SDS011;44948;55.046;73.266;2022-08-05T08:11:29;2.65;;;1.30;;
59167;SDS011;44948;55.046;73.266;2022-08-05T08:15:49;1.80;;;1.20;;
59167;SDS011;44948;55.046;73.266;2022-08-05T08:18:03;1.15;;;1.05;;
59167;SDS011;44948;55.046;73.266;2022-08-05T08:19:55;4.55;;;1.23;;
59167;SDS011;44948;55.046;73.266;2022-08-05T08:21:47;3.65;;;1.25;;
59167;SDS011;44948;55.046;73.266;2022-08-05T08:23:48;4.35;;;1.33;;
59167;SDS011;44948;55.046;73.266;2022-08-05T08:25:39;2.20;;;1.50;;
59167;SDS011;44948;55.046;73.266;2022-08-05T08:27:30;4.85;;;1.70;;
59167;SDS011;44948;55.046;73.266;2022-08-05T08:29:32;2.38;;;1.95;;
59167;SDS011;44948;55.046;73.266;2022-08-05T08:31:33;2.92;;;1.20;;
59167;SDS011;44948;55.046;73.266;2022-08-05T08:33:39;4.10;;;1.20;;
59167;SDS011;44948;55.046;73.266;2022-08-05T08:35:37;2.00;;;1.10;;
59167;SDS011;44948;55.046;73.266;2022-08-05T08:37:44;2.47;;;1.10;;
59167;SDS011;44948;55.046;73.266;2022-08-05T08:39:54;2.45;;;1.15;;
59167;SDS011;44948;55.046;73.266;2022-08-05T08:41:40;2.55;;;1.20;;
59167;SDS011;44948;55.046;73.266;2022-08-05T08:43:32;4.13;;;1.60;;
59167;SDS011;44948;55.046;73.266;2022-08-05T08:45:39;4.25;;;1.73;;
59167;SDS011;44948;55.046;73.266;2022-08-05T08:47:43;2.88;;;1.10;;
59167;SDS011;44948;55.046;73.266;2022-08-05T08:49:41;1.02;;;0.93;;
59167;SDS011;44948;55.046;73.266;2022-08-05T08:51:46;3.20;;;1.27;;
59167;SDS011;44948;55.046;73.266;2022-08-05T08:53:44;2.38;;;1.08;;
59167;SDS011;44948;55.046;73.266;2022-08-05T08:55:52;3.45;;;1.13;;
59167;SDS011;44948;55.046;73.266;2022-08-05T08:57:53;1.30;;;1.10;;
59167;SDS011;44948;55.046;73.266;2022-08-05T09:00:01;1.63;;;1.13;;
59167;SDS011;44948;55.046;73.266;2022-08-05T09:01:55;3.42;;;1.20;;
59167;SDS011;44948;55.046;73.266;2022-08-05T09:04:23;3.55;;;1.27;;
59167;SDS011;44948;55.046;73.266;2022-08-05T09:06:22;3.53;;;1.38;;
59167;SDS011;44948;55.046;73.266;2022-08-05T09:08:15;2.83;;;1.48;;
59167;SDS011;44948;55.046;73.266;2022-08-05T09:10:17;1.48;;;1.05;;
59167;SDS011;44948;55.046;73.266;2022-08-05T09:12:13;2.38;;;1.23;;
59167;SDS011;44948;55.046;73.266;2022-08-05T09:14:07;2.40;;;1.00;;
59167;SDS011;44948;55.046;73.266;2022-08-05T09:16:03;3.97;;;1.10;;
59167;SDS011;44948;55.046;73.266;2022-08-05T09:18:00;1.15;;;1.00;;
59167;SDS011;44948;55.046;73.266;2022-08-05T09:20:07;2.75;;;0.95;;
59167;SDS011;44948;55.046;73.266;2022-08-05T09:22:02;6.18;;;1.25;;
59167;SDS011;44948;55.046;73.266;2022-08-05T09:24:08;1.42;;;1.10;;
59167;SDS011;44948;55.046;73.266;2022-08-05T09:26:12;1.75;;;1.30;;
59167;SDS011;44948;55.046;73.266;2022-08-05T09:28:35;2.38;;;1.15;;
59167;SDS011;44948;55.046;73.266;2022-08-05T09:30:25;1.90;;;1.13;;
59167;SDS011;44948;55.046;73.266;2022-08-05T09:32:25;2.65;;;1.20;;
59167;SDS011;44948;55.046;73.266;2022-08-05T09:34:22;1.60;;;1.10;;
59167;SDS011;44948;55.046;73.266;2022-08-05T09:36:59;3.50;;;1.20;;
59167;SDS011;44948;55.046;73.266;2022-08-05T09:39:41;1.45;;;1.00;;
59167;SDS011;44948;55.046;73.266;2022-08-05T09:43:56;1.67;;;0.95;;
59167;SDS011;44948;55.046;73.266;2022-08-05T09:46:07;3.28;;;1.60;;
59167;SDS011;44948;55.046;73.266;2022-08-05T09:48:40;1.80;;;1.02;;
59167;SDS011;44948;55.046;73.266;2022-08-05T09:50:37;2.70;;;1.20;;
59167;SDS011;44948;55.046;73.266;2022-08-05T09:52:27;4.30;;;1.00;;
59167;SDS011;44948;55.046;73.266;2022-08-05T09:54:58;5.05;;;1.30;;
59167;SDS011;44948;55.046;73.266;2022-08-05T09:57:21;3.28;;;1.10;;
59167;SDS011;44948;55.046;73.266;2022-08-05T09:59:29;2.88;;;1.05;;
59167;SDS011;44948;55.046;73.266;2022-08-05T10:01:23;4.65;;;1.50;;
59167;SDS011;44948;55.046;73.266;2022-08-05T10:03:12;1.80;;;1.10;;
59167;SDS011;44948;55.046;73.266;2022-08-05T10:05:05;2.95;;;1.15;;
59167;SDS011;44948;55.046;73.266;2022-08-05T10:07:05;2.95;;;0.90;;
59167;SDS011;44948;55.046;73.266;2022-08-05T10:08:55;4.88;;;1.38;;
59167;SDS011;44948;55.046;73.266;2022-08-05T10:10:59;2.10;;;1.10;;
59167;SDS011;44948;55.046;73.266;2022-08-05T10:13:05;6.32;;;1.20;;
59167;SDS011;44948;55.046;73.266;2022-08-05T10:15:24;2.55;;;1.00;;
59167;SDS011;44948;55.046;73.266;2022-08-05T10:20:22;2.72;;;1.20;;
59167;SDS011;44948;55.046;73.266;2022-08-05T10:22:25;5.25;;;1.10;;
59167;SDS011;44948;55.046;73.266;2022-08-05T10:24:37;1.58;;;1.13;;
59167;SDS011;44948;55.046;73.266;2022-08-05T10:26:34;1.33;;;0.95;;
59167;SDS011;44948;55.046;73.266;2022-08-05T10:28:27;1.98;;;1.10;;
59167;SDS011;44948;55.046;73.266;2022-08-05T10:30:47;2.38;;;1.05;;
59167;SDS011;44948;55.046;73.266;2022-08-05T10:35:33;1.80;;;1.27;;
59167;SDS011;44948;55.046;73.266;2022-08-05T10:39:36;1.17;;;0.90;;
59167;SDS011;44948;55.046;73.266;2022-08-05T10:42:02;3.28;;;1.10;;
59167;SDS011;44948;55.046;73.266;2022-08-05T10:44:31;9.45;;;1.77;;
59167;SDS011;44948;55.046;73.266;2022-08-05T10:47:03;3.17;;;2.10;;
59167;SDS011;44948;55.046;73.266;2022-08-05T10:49:26;3.58;;;1.33;;
59167;SDS011;44948;55.046;73.266;2022-08-05T10:51:44;6.72;;;1.23;;
59167;SDS011;44948;55.046;73.266;2022-08-05T10:56:25;9.02;;;1.65;;
59167;SDS011;44948;55.046;73.266;2022-08-05T10:58:34;3.55;;;1.27;;
59167;SDS011;44948;55.046;73.266;2022-08-05T11:00:34;3.20;;;0.90;;
59167;SDS011;44948;55.046;73.266;2022-08-05T11:02:41;2.47;;;1.13;;
59167;SDS011;44948;55.046;73.266;2022-08-05T11:07:20;4.95;;;1.08;;
59167;SDS011;44948;55.046;73.266;2022-08-05T11:11:46;4.00;;;1.15;;
59167;SDS011;44948;55.046;73.266;2022-08-05T11:13:42;3.13;;;1.02;;
59167;SDS011;44948;55.046;73.266;2022-08-05T11:15:35;5.38;;;1.17;;
59167;SDS011;44948;55.046;73.266;2022-08-05T11:17:34;4.68;;;1.10;;
59167;SDS011;44948;55.046;73.266;2022-08-05T11:19:37;4.97;;;1.05;;
59167;SDS011;44948;55.046;73.266;2022-08-05T11:21:54;16.10;;;12.02;;
59167;SDS011;44948;55.046;73.266;2022-08-05T11:24:11;6.30;;;2.08;;
59167;SDS011;44948;55.046;73.266;2022-08-05T11:35:56;2.67;;;1.58;;
59167;SDS011;44948;55.046;73.266;2022-08-05T11:38:02;2.45;;;1.50;;
59167;SDS011;44948;55.046;73.266;2022-08-05T11:39:50;2.22;;;1.40;;
59167;SDS011;44948;55.046;73.266;2022-08-05T11:41:50;4.75;;;1.10;;
59167;SDS011;44948;55.046;73.266;2022-08-05T11:46:07;4.35;;;1.50;;
59167;SDS011;44948;55.046;73.266;2022-08-05T11:47:51;2.83;;;1.10;;
59167;SDS011;44948;55.046;73.266;2022-08-05T11:49:54;5.10;;;2.85;;
59167;SDS011;44948;55.046;73.266;2022-08-05T11:51:49;4.07;;;1.15;;
59167;SDS011;44948;55.046;73.266;2022-08-05T11:53:41;1.23;;;1.10;;
59167;SDS011;44948;55.046;73.266;2022-08-05T11:56:02;4.50;;;2.95;;
59167;SDS011;44948;55.046;73.266;2022-08-05T11:57:59;4.32;;;1.38;;
59167;SDS011;44948;55.046;73.266;2022-08-05T12:00:02;7.28;;;3.30;;
59167;SDS011;44948;55.046;73.266;2022-08-05T12:01:56;2.63;;;1.13;;
59167;SDS011;44948;55.046;73.266;2022-08-05T12:04:04;4.75;;;1.35;;
59167;SDS011;44948;55.046;73.266;2022-08-05T12:06:07;1.40;;;0.82;;
59167;SDS011;44948;55.046;73.266;2022-08-05T12:08:17;5.43;;;2.80;;
59167;SDS011;44948;55.046;73.266;2022-08-05T12:10:36;6.97;;;3.55;;
59167;SDS011;44948;55.046;73.266;2022-08-05T12:12:28;5.55;;;2.50;;
59167;SDS011;44948;55.046;73.266;2022-08-05T12:14:24;15.95;;;7.25;;
59167;SDS011;44948;55.046;73.266;2022-08-05T12:16:19;9.23;;;6.40;;
59167;SDS011;44948;55.046;73.266;2022-08-05T12:20:39;13.18;;;4.70;;
59167;SDS011;44948;55.046;73.266;2022-08-05T12:22:40;25.92;;;11.70;;
59167;SDS011;44948;55.046;73.266;2022-08-05T12:24:38;23.83;;;10.70;;
59167;SDS011;44948;55.046;73.266;2022-08-05T12:26:49;4.53;;;1.50;;
59167;SDS011;44948;55.046;73.266;2022-08-05T12:29:02;2.88;;;1.30;;
59167;SDS011;44948;55.046;73.266;2022-08-05T12:30:56;3.97;;;2.05;;
59167;SDS011;44948;55.046;73.266;2022-08-05T12:33:15;3.25;;;1.80;;
59167;SDS011;44948;55.046;73.266;2022-08-05T12:35:13;4.63;;;1.50;;
59167;SDS011;44948;55.046;73.266;2022-08-05T12:37:46;7.32;;;5.63;;
59167;SDS011;44948;55.046;73.266;2022-08-05T12:39:51;8.98;;;4.60;;
59167;SDS011;44948;55.046;73.266;2022-08-05T12:41:56;6.40;;;3.40;;
59167;SDS011;44948;55.046;73.266;2022-08-05T12:46:35;2.83;;;1.65;;
59167;SDS011;44948;55.046;73.266;2022-08-05T12:48:39;4.55;;;2.92;;
59167;SDS011;44948;55.046;73.266;2022-08-05T12:53:16;6.30;;;4.03;;
59167;SDS011;44948;55.046;73.266;2022-08-05T12:55:17;11.07;;;5.65;;
59167;SDS011;44948;55.046;73.266;2022-08-05T12:57:13;15.77;;;6.20;;
59167;SDS011;44948;55.046;73.266;2022-08-05T12:59:19;11.80;;;5.20;;
59167;SDS011;44948;55.046;73.266;2022-08-05T13:01:21;13.93;;;4.95;;
59167;SDS011;44948;55.046;73.266;2022-08-05T13:03:39;2.40;;;1.55;;
59167;SDS011;44948;55.046;73.266;2022-08-05T13:05:58;5.40;;;1.50;;
59167;SDS011;44948;55.046;73.266;2022-08-05T13:08:04;5.38;;;1.63;;
59167;SDS011;44948;55.046;73.266;2022-08-05T13:12:22;4.93;;;1.90;;
59167;SDS011;44948;55.046;73.266;2022-08-05T13:14:20;9.65;;;3.75;;
59167;SDS011;44948;55.046;73.266;2022-08-05T13:16:14;22.38;;;9.27;;
59167;SDS011;44948;55.046;73.266;2022-08-05T13:18:02;8.93;;;2.13;;
59167;SDS011;44948;55.046;73.266;2022-08-05T13:21:49;9.80;;;6.40;;